Latest Weather Observations for Gladstone

IDQ60801

Issued at 6:02 pm EST Thursday 17 October 2019 (issued every 10 minutes, with the page automatically refreshed every 10 minutes)

About weather observations | Map of weather stations | Latest weather observations for QLD | Other Formats
Station Details ID: 039123 Name: GLADSTONE RADAR Lat: -23.86 Lon: 151.26 Height: 74.5 m
Data from the previous 72 hours. | See also: Recent months at Gladstone
Date/Time
EST
Temp
°C
App
Temp
°C
Dew
Point
°C
Rel
Hum
%
Delta-T
°C
Wind Press
QNH
hPa
Press
MSL
hPa
Rain since
9am
mm
Dir  Spd
km/h
Gust
km/h
Spd
kts
Gust
kts
17/05:30pm 23.5 23.5 19.0 76 2.9 N 17 30 9 16 1014.4 1014.1 0.0
17/05:00pm 23.7 23.2 18.6 73 3.2 N 19 32 10 17 1014.3 1014.0 0.0
17/04:30pm 24.5 23.8 18.7 70 3.7 N 20 32 11 17 1013.9 1013.6 0.0
17/04:00pm 25.9 25.8 18.8 65 4.5 N 17 33 9 18 1013.6 1013.3 0.0
17/03:30pm 25.3 25.2 18.7 67 4.2 NNE 17 33 9 18 1013.7 1013.4 0.0
17/03:00pm 25.6 24.8 18.5 65 4.5 NNE 20 37 11 20 1013.9 1013.6 0.0
17/02:30pm 25.7 24.7 18.9 66 4.4 NNE 22 37 12 20 1014.2 1013.9 0.0
17/02:00pm 26.1 24.9 19.2 65 4.4 NE 24 37 13 20 1014.7 1014.4 0.0
17/01:30pm 26.7 25.7 19.6 65 4.6 NE 24 37 13 20 1015.0 1014.7 0.0
17/01:00pm 27.3 26.0 19.1 61 5.3 NE 24 39 13 21 1015.4 1015.1 0.0
17/12:30pm 26.5 25.4 19.4 65 4.6 NNE 24 33 13 18 1016.0 1015.7 0.0
17/12:00pm 26.1 25.9 18.5 63 4.8 NNE 17 28 9 15 1016.4 1016.1 0.0
17/11:30am 26.7 25.3 18.8 62 5.1 NE 24 39 13 21 1016.7 1016.4 0.0
17/11:00am 27.8 27.7 19.6 61 5.3 NE 19 32 10 17 1016.9 1016.6 0.0
17/10:30am 27.3 27.0 19.6 62 5.0 NNE 20 33 11 18 1017.0 1016.7 0.0
17/10:00am 27.3 27.4 19.1 61 5.3 NNE 17 33 9 18 1017.6 1017.3 0.0
17/09:30am 26.8 26.4 19.4 64 4.8 NNE 20 35 11 19 1017.5 1017.2 0.0
17/09:00am 26.8 26.8 19.7 65 4.6 NNE 19 33 10 18 1017.4 1017.1 0.2
17/08:30am 26.4 28.2 21.2 73 3.5 N 13 20 7 11 1017.6 1017.3 0.2
17/08:00am 25.2 26.8 20.7 76 3.0 NNE 13 22 7 12 1017.9 1017.6 0.2
17/07:30am 23.8 26.6 21.5 87 1.5 N 9 17 5 9 1018.4 1018.1 0.2
17/07:00am 22.2 24.9 20.7 91 1.0 N 7 15 4 8 1018.3 1018.0 0.2
17/06:30am 21.3 23.5 20.5 95 0.5 N 9 15 5 8 1018.1 1017.8 0.2
17/06:00am 21.1 23.1 19.9 93 0.8 WNW 9 15 5 8 1017.8 1017.5 0.0
17/05:30am 21.5 23.5 20.0 91 1.0 NW 9 13 5 7 1017.5 1017.2 0.0
17/05:00am 21.8 23.6 19.5 87 1.5 NNW 9 20 5 11 1016.9 1016.6 0.0
17/04:30am 21.7 22.3 19.4 87 1.5 N 15 28 8 15 1015.4 1015.1 0.0
17/04:00am 21.7 23.1 19.6 88 1.3 NNE 11 19 6 10 1015.2 1014.9 0.0
17/03:30am 21.7 22.8 19.6 88 1.3 N 13 26 7 14 1015.0 1014.7 0.0
17/03:00am 21.8 22.5 19.7 88 1.3 N 15 26 8 14 1014.9 1014.6 0.0
17/02:30am 21.7 22.8 19.6 88 1.3 NNE 13 24 7 13 1014.8 1014.5 0.0
17/02:00am 21.8 22.9 19.7 88 1.3 NNE 13 24 7 13 1014.8 1014.5 0.0
17/01:30am 21.8 23.0 19.9 89 1.2 N 13 20 7 11 1015.1 1014.8 0.0
17/01:00am 21.8 22.5 19.7 88 1.3 N 15 24 8 13 1015.5 1015.2 0.0
17/12:30am 21.7 22.9 19.8 89 1.2 N 13 24 7 13 1015.7 1015.4 0.0
17/12:00am 21.6 23.6 19.9 90 1.1 N 9 19 5 10 1015.9 1015.6 0.0
 
Date/Time
EST
Temp
°C
App
Temp
°C
Dew
Point
°C
Rel
Hum
%
Delta-T
°C
Wind Press
QNH
hPa
Press
MSL
hPa
Rain since
9am
mm
Dir  Spd
km/h
Gust
km/h
Spd
kts
Gust
kts
16/11:30pm 21.7 22.9 20.0 90 1.1 N 13 24 7 13 1016.1 1015.8 0.0
16/11:00pm 21.3 22.7 19.6 90 1.1 N 11 24 6 13 1016.2 1015.9 0.0
16/10:30pm 21.6 23.1 19.7 89 1.2 N 11 20 6 11 1016.5 1016.2 0.0
16/10:00pm 21.6 22.7 19.7 89 1.2 N 13 20 7 11 1016.6 1016.3 0.0
16/09:30pm 21.9 23.8 19.8 88 1.3 NNW 9 19 5 10 1016.9 1016.6 0.0
16/09:00pm 21.8 23.3 19.7 88 1.3 N 11 20 6 11 1016.9 1016.6 0.0
16/08:30pm 21.9 23.0 19.6 87 1.5 NNE 13 22 7 12 1016.6 1016.3 0.0
16/08:00pm 22.0 23.4 19.5 86 1.6 NNE 11 20 6 11 1016.5 1016.2 0.0
16/07:30pm 22.2 24.1 19.7 86 1.6 N 9 19 5 10 1016.4 1016.1 0.0
16/07:00pm 22.2 23.7 19.7 86 1.6 NNE 11 22 6 12 1016.2 1015.9 0.0
16/06:30pm 22.4 23.1 19.6 84 1.8 NNE 15 24 8 13 1015.9 1015.6 0.0
16/06:00pm 22.7 23.6 19.3 81 2.2 NNE 13 22 7 12 1015.8 1015.5 0.0
16/05:30pm 22.9 23.5 19.5 81 2.2 NNE 15 24 8 13 1015.6 1015.3 0.0
16/05:00pm 23.7 23.8 19.2 76 2.9 NNE 17 30 9 16 1015.1 1014.8 0.0
16/04:30pm 24.0 24.3 19.5 76 2.9 NNE 17 30 9 16 1015.0 1014.7 0.0
16/04:00pm 24.3 23.9 18.9 72 3.4 NNE 19 33 10 18 1014.7 1014.4 0.0
16/03:30pm 25.3 25.5 19.4 70 3.8 NE 17 33 9 18 1014.7 1014.4 0.0
16/03:00pm 25.0 24.1 19.1 70 3.8 NNE 22 32 12 17 1014.7 1014.4 0.0
16/02:30pm 26.0 25.5 19.2 66 4.4 NNE 20 35 11 19 1014.5 1014.2 0.0
16/02:00pm 26.4 25.3 19.5 66 4.5 NNE 24 33 13 18 1015.0 1014.7 0.0
16/01:30pm 27.0 27.0 20.1 66 4.5 NNE 20 35 11 19 1015.1 1014.8 0.0
16/01:00pm 27.1 26.8 19.2 62 5.1 NNE 19 33 10 18 1015.4 1015.1 0.0
16/12:30pm 26.3 25.9 18.9 63 4.8 NNE 19 32 10 17 1015.8 1015.5 0.0
16/12:00pm 26.4 26.0 19.3 65 4.6 NNE 20 32 11 17 1016.3 1016.0 0.0
16/11:30am 26.4 26.1 19.5 66 4.5 NNE 20 35 11 19 1016.3 1016.0 0.0
16/11:00am 25.8 25.8 19.7 69 4.0 NE 19 33 10 18 1016.7 1016.4 0.0
16/10:30am 25.1 24.6 19.2 70 3.8 NE 20 30 11 16 1017.1 1016.8 0.0
16/10:00am 23.6 23.8 19.3 77 2.7 NNE 17 26 9 14 1017.3 1017.0 0.0
16/09:30am 24.3 24.8 20.0 77 2.8 NE 17 26 9 14 1017.7 1017.4 0.0
16/09:00am 23.5 24.2 19.6 79 2.5 NNE 15 26 8 14 1017.8 1017.5 0.0
16/08:30am 23.3 24.0 19.7 80 2.3 NNE 15 28 8 15 1017.6 1017.3 0.0
16/08:00am 22.8 23.4 19.4 81 2.2 NNE 15 26 8 14 1017.4 1017.1 0.0
16/07:30am 22.5 23.1 19.5 83 1.9 NNE 15 28 8 15 1017.1 1016.8 0.0
16/07:00am 22.2 23.3 19.7 86 1.6 NNE 13 22 7 12 1016.9 1016.6 0.0
16/06:30am 22.2 22.8 19.4 84 1.8 NNE 15 24 8 13 1016.5 1016.2 0.0
16/06:00am 22.0 23.1 19.7 87 1.5 NNE 13 24 7 13 1016.1 1015.8 0.0
16/05:30am 21.9 22.9 19.5 86 1.5 NE 13 20 7 11 1015.6 1015.3 0.0
16/05:00am 21.9 22.8 19.3 85 1.7 NNE 13 20 7 11 1015.3 1015.0 0.0
16/04:30am 21.9 23.7 19.5 86 1.5 NNE 9 17 5 9 1015.0 1014.7 0.0
16/04:00am 21.9 23.3 19.5 86 1.5 NNE 11 19 6 10 1014.6 1014.3 0.0
16/03:30am 21.9 23.3 19.5 86 1.5 NNE 11 17 6 9 1014.1 1013.8 0.0
16/03:00am 21.9 23.6 19.3 85 1.7 NNE 9 17 5 9 1013.7 1013.4 0.0
16/02:30am 21.9 23.6 19.3 85 1.7 N 9 17 5 9 1013.6 1013.3 0.0
16/02:00am 21.9 23.7 19.5 86 1.5 N 9 17 5 9 1013.4 1013.1 0.0
16/01:30am 21.9 23.7 19.5 86 1.5 N 9 13 5 7 1013.5 1013.2 0.0
16/01:00am 21.9 23.7 19.5 86 1.5 N 9 13 5 7 1013.5 1013.2 0.0
16/12:30am 21.9 23.7 19.5 86 1.5 N 9 15 5 8 1013.6 1013.3 0.0
16/12:00am 22.0 24.1 19.4 85 1.7 N 7 15 4 8 1013.9 1013.6 0.0
 
Date/Time
EST
Temp
°C
App
Temp
°C
Dew
Point
°C
Rel
Hum
%
Delta-T
°C
Wind Press
QNH
hPa
Press
MSL
hPa
Rain since
9am
mm
Dir  Spd
km/h
Gust
km/h
Spd
kts
Gust
kts
15/11:30pm 22.1 23.4 19.3 84 1.8 N 11 20 6 11 1014.1 1013.8 0.0
15/11:00pm 22.2 23.6 19.6 85 1.7 N 11 20 6 11 1014.1 1013.8 0.0
15/10:30pm 22.2 23.2 19.4 84 1.8 N 13 24 7 13 1014.1 1013.8 0.0
15/10:00pm 22.2 23.2 19.4 84 1.8 N 13 24 7 13 1014.1 1013.8 0.0
15/09:30pm 22.2 23.2 19.4 84 1.8 N 13 24 7 13 1014.1 1013.8 0.0
15/09:00pm 22.2 23.5 19.4 84 1.8 N 11 22 6 12 1014.2 1013.9 0.0
15/08:30pm 22.1 22.9 19.1 83 1.9 N 13 22 7 12 1013.9 1013.6 0.0
15/08:00pm 22.1 22.9 19.1 83 1.9 N 13 26 7 14 1013.4 1013.1 0.0
15/07:30pm 22.2 23.0 19.0 82 2.0 N 13 24 7 13 1013.3 1013.0 0.0
15/07:00pm 22.2 22.6 19.0 82 2.0 NNE 15 28 8 15 1013.0 1012.7 0.0
15/06:30pm 22.2 22.6 19.0 82 2.0 NNE 15 26 8 14 1012.8 1012.5 0.0
15/06:00pm 22.3 22.2 18.7 80 2.3 NNE 17 28 9 15 1012.2 1011.8 0.0
15/05:30pm 22.8 22.4 18.8 78 2.5 NNE 19 33 10 18 1011.9 1011.5 0.0
15/05:00pm 23.3 23.2 18.8 76 2.9 NNE 17 35 9 19 1011.6 1011.2 0.0
15/04:30pm 23.8 23.5 19.1 75 3.0 NNE 19 30 10 16 1011.3 1010.9 0.0
15/04:00pm 24.8 23.6 19.2 71 3.6 NE 24 35 13 19 1011.1 1010.7 0.0
15/03:30pm 25.4 25.1 19.1 68 4.0 NNE 19 35 10 19 1011.1 1010.7 0.0
15/03:00pm 25.4 23.8 18.3 65 4.5 NNE 24 41 13 22 1011.1 1010.7 0.0
15/02:30pm 26.9 26.9 19.8 65 4.6 NNE 19 33 10 18 1011.3 1010.9 0.0
15/02:00pm 26.1 24.8 19.0 65 4.6 NNE 24 39 13 21 1011.8 1011.4 0.0
15/01:30pm 26.8 25.6 19.2 63 4.9 NNE 24 37 13 20 1012.2 1011.8 0.0
15/01:00pm 27.9 27.2 19.4 60 5.5 NNE 22 37 12 20 1012.2 1011.8 0.0
15/12:30pm 28.8 29.0 19.4 56 6.1 NNE 17 35 9 19 1012.5 1012.2 0.0
15/12:00pm 29.8 30.5 20.4 57 6.2 N 17 28 9 15 1013.1 1012.8 0.0
15/11:30am 26.9 27.3 18.2 59 5.5 NNW 13 20 7 11 1013.6 1013.3 0.0
15/11:00am 25.8 24.8 16.6 56 5.7 WNW 17 28 9 15 1014.3 1014.0 0.0
15/10:30am 26.7 26.8 17.5 57 5.8 W 13 28 7 15 1014.6 1014.3 0.0
15/10:00am 25.4 24.3 16.3 57 5.6 WNW 17 30 9 16 1014.9 1014.6 0.0
15/09:30am 24.8 24.7 17.0 62 4.8 WNW 13 26 7 14 1015.3 1015.0 0.0
15/09:00am 24.2 23.2 16.7 63 4.6 WNW 17 28 9 15 1015.5 1015.2 0.0
15/08:30am 23.9 23.1 17.2 66 4.2 NW 17 28 9 15 1015.7 1015.4 0.0
15/08:00am 23.0 22.4 17.5 71 3.4 WNW 17 32 9 17 1015.8 1015.5 0.0
15/07:30am 21.9 21.7 17.7 77 2.6 WNW 15 22 8 12 1016.0 1015.7 0.0
15/07:00am 21.5 23.1 17.9 80 2.2 NW 6 11 3 6 1016.0 1015.7 0.0
15/06:30am 21.3 22.2 17.5 79 2.3 NW 9 15 5 8 1015.6 1015.3 0.0
15/06:00am 21.2 22.0 17.4 79 2.3 NW 9 15 5 8 1015.4 1015.1 0.0
15/05:30am 21.1 21.5 17.3 79 2.3 NW 11 19 6 10 1015.3 1015.0 0.0
15/05:00am 20.9 21.6 17.1 79 2.3 NNW 9 17 5 9 1014.8 1014.5 0.0
15/04:30am 20.9 21.2 16.9 78 2.4 NNW 11 19 6 10 1014.7 1014.4 0.0
15/04:00am 20.8 21.1 17.0 79 2.3 NNW 11 20 6 11 1014.3 1014.0 0.0
15/03:30am 20.9 20.9 17.1 79 2.3 NNW 13 20 7 11 1014.4 1014.1 0.0
15/03:00am 20.8 21.1 17.0 79 2.3 NNW 11 28 6 15 1014.2 1013.9 0.0
15/02:30am 20.7 20.6 16.9 79 2.3 NNW 13 20 7 11 1014.2 1013.9 0.0
15/02:00am 20.6 20.7 16.6 78 2.4 NNW 11 19 6 10 1014.5 1014.2 0.0
15/01:30am 20.5 21.1 16.9 80 2.2 NW 9 17 5 9 1014.9 1014.6 0.0
15/01:00am 20.3 20.0 16.5 79 2.3 NW 13 22 7 12 1015.1 1014.8 0.0
15/12:30am 20.4 21.0 16.8 80 2.2 NNW 9 17 5 9 1015.6 1015.3 0.0
15/12:00am 20.5 21.0 16.5 78 2.4 NNW 9 15 5 8 1016.0 1015.7 0.0
 
Date/Time
EST
Temp
°C
App
Temp
°C
Dew
Point
°C
Rel
Hum
%
Delta-T
°C
Wind Press
QNH
hPa
Press
MSL
hPa
Rain since
9am
mm
Dir  Spd
km/h
Gust
km/h
Spd
kts
Gust
kts
14/11:30pm 20.6 20.7 16.4 77 2.5 NNW 11 22 6 12 1016.1 1015.8 0.0
14/11:00pm 20.5 20.5 16.3 77 2.5 N 11 20 6 11 1016.2 1015.9 0.0
14/10:30pm 20.6 20.2 16.2 76 2.7 N 13 22 7 12 1016.4 1016.1 0.0
14/10:00pm 20.6 20.2 16.2 76 2.6 NNE 13 22 7 12 1016.7 1016.4 0.0
14/09:30pm 20.5 20.5 16.3 77 2.5 N 11 19 6 10 1017.0 1016.7 0.0
14/09:00pm 20.2 20.5 16.0 77 2.5 NNW 9 15 5 8 1017.2 1016.9 0.0
14/08:30pm 20.3 20.6 15.9 76 2.6 NNW 9 15 5 8 1017.2 1016.9 0.0
14/08:00pm 20.4 20.5 15.6 74 2.9 N 9 17 5 9 1017.3 1017.0 0.0
14/07:30pm 20.5 20.6 15.5 73 3.0 N 9 15 5 8 1017.1 1016.8 0.0
14/07:00pm 20.6 19.8 15.2 71 3.2 N 13 24 7 13 1016.7 1016.4 0.0
14/06:30pm 20.7 19.9 15.0 70 3.4 N 13 20 7 11 1016.0 1015.7 0.0

Other formats

Comma delimited format used in spreadsheet applications
http://www.bom.gov.au/fwo/IDQ60801/IDQ60801.94380.axf

JavaScript Object Notation format (JSON) in row-major order
http://www.bom.gov.au/fwo/IDQ60801/IDQ60801.94380.json

Data quality

Most of these data are generated automatically and are frequently updated. Quality checks on data are not normally performed. It is possible for incorrect values to appear. Refer to information at About Latest Weather Observations and please check the disclaimer before using these data.